createdAt,value
2018-03-25T00:00:51.681Z,1.12
2018-03-25T00:01:51.897Z,1.04
2018-03-25T00:02:52.112Z,1.03
2018-03-25T00:03:56.095Z,0.85
2018-03-25T00:04:52.436Z,0.82
2018-03-25T00:05:56.600Z,0.90
2018-03-25T00:06:52.796Z,0.97
2018-03-25T00:07:53.005Z,1.00
2018-03-25T00:08:53.221Z,0.97
2018-03-25T00:09:55.096Z,0.94
2018-03-25T00:10:53.548Z,0.88
2018-03-25T00:11:53.744Z,0.94
2018-03-25T00:12:53.951Z,1.03
2018-03-25T00:13:54.152Z,1.01
2018-03-25T00:14:54.358Z,1.04
2018-03-25T00:15:54.557Z,0.94
2018-03-25T00:16:54.764Z,0.94
2018-03-25T00:17:56.614Z,0.88
2018-03-25T00:18:55.185Z,0.80
2018-03-25T00:19:55.382Z,0.79
2018-03-25T00:20:55.588Z,0.67
2018-03-25T00:21:57.608Z,0.72
2018-03-25T00:22:59.595Z,0.68
2018-03-25T00:23:56.049Z,0.53
2018-03-25T00:24:56.259Z,0.53
2018-03-25T00:25:56.467Z,0.60
2018-03-25T00:26:56.678Z,0.53
2018-03-25T00:27:56.894Z,0.61
2018-03-25T00:28:57.079Z,0.67
2018-03-25T00:30:00.112Z,0.51
2018-03-25T00:30:57.448Z,0.65
2018-03-25T00:31:57.657Z,0.49
2018-03-25T00:32:57.854Z,0.57
2018-03-25T00:33:58.053Z,0.51
2018-03-25T00:35:00.097Z,0.41
2018-03-25T00:35:58.424Z,0.46
2018-03-25T00:36:58.632Z,0.57
2018-03-25T00:37:58.841Z,0.52
2018-03-25T00:38:59.049Z,0.51
2018-03-25T00:39:59.258Z,0.42
2018-03-25T00:40:59.466Z,0.48
2018-03-25T00:41:59.669Z,0.51
2018-03-25T00:42:59.881Z,0.49
2018-03-25T00:44:00.084Z,0.58
2018-03-25T00:45:00.277Z,0.48
2018-03-25T00:46:00.486Z,0.43
2018-03-25T00:47:00.688Z,0.43
2018-03-25T00:48:02.596Z,0.38
2018-03-25T00:49:01.055Z,0.41
2018-03-25T00:50:01.266Z,0.34
2018-03-25T00:51:01.458Z,0.39
2018-03-25T00:52:01.667Z,0.23
2018-03-25T00:53:01.871Z,0.31
2018-03-25T00:54:02.081Z,0.31
2018-03-25T00:55:02.296Z,0.34
2018-03-25T00:56:02.509Z,0.25
2018-03-25T00:57:04.595Z,0.33
2018-03-25T00:58:04.597Z,0.31
2018-03-25T00:59:03.038Z,0.33
2018-03-25T01:00:03.252Z,0.30
2018-03-25T01:01:03.450Z,0.31
2018-03-25T01:02:03.652Z,0.18
2018-03-25T01:03:07.599Z,0.24
2018-03-25T01:04:04.049Z,0.18
2018-03-25T01:05:04.261Z,0.24
2018-03-25T01:06:04.460Z,0.23
2018-03-25T01:07:04.665Z,0.23
2018-03-25T01:08:04.874Z,0.12
2018-03-25T01:09:05.085Z,0.18
2018-03-25T01:10:05.294Z,0.16
2018-03-25T01:11:05.507Z,0.10
2018-03-25T01:12:05.703Z,-0.01
2018-03-25T01:13:05.914Z,0.13
2018-03-25T01:14:08.098Z,0.03
2018-03-25T01:15:06.294Z,0.00
2018-03-25T01:16:06.515Z,-0.12
2018-03-25T01:17:06.718Z,-0.06
2018-03-25T01:18:06.954Z,-0.06
2018-03-25T01:19:14.105Z,-0.11
2018-03-25T01:20:07.310Z,0.02
2018-03-25T01:21:09.099Z,0.05
2018-03-25T01:22:07.684Z,0.06
2018-03-25T01:23:07.899Z,-0.05
2018-03-25T01:24:09.598Z,0.10
2018-03-25T01:25:08.341Z,0.00
2018-03-25T01:26:08.537Z,-0.13
2018-03-25T01:27:08.724Z,-0.13
2018-03-25T01:28:08.919Z,0.00
2018-03-25T01:29:09.129Z,-0.15
2018-03-25T01:30:09.339Z,-0.13
2018-03-25T01:31:09.546Z,-0.18
2018-03-25T01:32:09.748Z,-0.16
2018-03-25T01:33:09.959Z,-0.22
2018-03-25T01:34:10.158Z,-0.13
2018-03-25T01:35:10.384Z,-0.16
2018-03-25T01:36:12.099Z,-0.16
2018-03-25T01:37:10.809Z,-0.26
2018-03-25T01:38:11.020Z,-0.19
2018-03-25T01:39:11.217Z,-0.15
2018-03-25T01:40:11.412Z,-0.13
2018-03-25T01:41:11.624Z,-0.26
2018-03-25T01:42:11.833Z,-0.15
2018-03-25T01:43:13.599Z,-0.26
2018-03-25T01:44:12.185Z,-0.31
2018-03-25T01:45:14.110Z,-0.16
2018-03-25T01:46:12.554Z,-0.13
2018-03-25T01:47:12.767Z,-0.30
2018-03-25T01:48:16.596Z,-0.19
2018-03-25T01:49:13.178Z,-0.22
2018-03-25T01:50:13.394Z,-0.12
2018-03-25T01:51:13.588Z,-0.22
2018-03-25T01:52:13.802Z,-0.11
2018-03-25T01:53:14.003Z,-0.29
2018-03-25T01:54:14.215Z,-0.37
2018-03-25T01:55:14.413Z,-0.42
2018-03-25T01:56:14.612Z,-0.42
2018-03-25T01:57:14.820Z,-0.31
2018-03-25T01:58:15.019Z,-0.30
2018-03-25T01:59:15.239Z,-0.19
2018-03-25T02:00:15.450Z,-0.26
2018-03-25T02:01:15.651Z,-0.24
2018-03-25T02:02:15.863Z,-0.27
2018-03-25T02:03:17.596Z,-0.16
2018-03-25T02:04:18.096Z,-0.26
2018-03-25T02:05:18.097Z,-0.27
2018-03-25T02:06:16.434Z,-0.33
2018-03-25T02:07:16.635Z,-0.26
2018-03-25T02:08:16.839Z,-0.18
2018-03-25T02:09:17.048Z,-0.19
2018-03-25T02:10:17.248Z,-0.24
2018-03-25T02:11:17.464Z,-0.22
2018-03-25T02:12:17.660Z,-0.23
2018-03-25T02:13:17.860Z,-0.15
2018-03-25T02:14:19.596Z,-0.22
2018-03-25T02:15:18.169Z,-0.23
2018-03-25T02:16:18.379Z,-0.30
2018-03-25T02:17:22.114Z,-0.31
2018-03-25T02:18:18.790Z,-0.44
2018-03-25T02:19:18.997Z,-0.48
2018-03-25T02:20:19.196Z,-0.55
2018-03-25T02:21:19.417Z,-0.52
2018-03-25T02:22:19.617Z,-0.45
2018-03-25T02:23:19.828Z,-0.50
2018-03-25T02:24:20.043Z,-0.54
2018-03-25T02:25:20.255Z,-0.47
2018-03-25T02:26:20.448Z,-0.33
2018-03-25T02:27:20.651Z,-0.42
2018-03-25T02:28:20.858Z,-0.34
2018-03-25T02:29:21.071Z,-0.29
2018-03-25T02:30:23.107Z,-0.34
2018-03-25T02:31:21.439Z,-0.31
2018-03-25T02:32:21.655Z,-0.45
2018-03-25T02:33:23.602Z,-0.51
2018-03-25T02:34:23.596Z,-0.62
2018-03-25T02:35:26.099Z,-0.45
2018-03-25T02:36:22.309Z,-0.47
2018-03-25T02:37:22.507Z,-0.57
2018-03-25T02:38:22.715Z,-0.60
2018-03-25T02:39:22.962Z,-0.66
2018-03-25T02:40:23.114Z,-0.66
2018-03-25T02:41:25.104Z,-0.70
2018-03-25T02:42:27.094Z,-0.80
2018-03-25T02:43:23.540Z,-0.83
2018-03-25T02:44:25.601Z,-0.72
2018-03-25T02:45:23.927Z,-0.80
2018-03-25T02:46:24.149Z,-0.77
2018-03-25T02:47:24.334Z,-0.72
2018-03-25T02:48:24.547Z,-0.60
2018-03-25T02:49:24.748Z,-0.59
2018-03-25T02:50:26.597Z,-0.59
2018-03-25T02:51:25.067Z,-0.57
2018-03-25T02:52:27.098Z,-0.47
2018-03-25T02:53:25.427Z,-0.54
2018-03-25T02:54:25.654Z,-0.50
2018-03-25T02:55:25.854Z,-0.54
2018-03-25T02:56:26.061Z,-0.77
2018-03-25T02:57:26.316Z,-0.66
2018-03-25T02:58:26.490Z,-0.69
2018-03-25T02:59:26.700Z,-0.83
2018-03-25T03:00:28.598Z,-0.81
2018-03-25T03:01:27.044Z,-0.70
2018-03-25T03:02:27.249Z,-0.68
2018-03-25T03:03:27.446Z,-0.63
2018-03-25T03:04:27.653Z,-0.62
2018-03-25T03:05:29.607Z,-0.55
2018-03-25T03:06:28.088Z,-0.63
2018-03-25T03:07:28.297Z,-0.59
2018-03-25T03:08:28.523Z,-0.68
2018-03-25T03:09:28.716Z,-0.65
2018-03-25T03:10:28.917Z,-0.77
2018-03-25T03:11:31.099Z,-0.72
2018-03-25T03:12:29.294Z,-0.83
2018-03-25T03:13:31.089Z,-0.81
2018-03-25T03:14:31.601Z,-0.72
2018-03-25T03:15:32.599Z,-0.83
2018-03-25T03:16:31.598Z,-0.87
2018-03-25T03:17:30.044Z,-0.80
2018-03-25T03:18:32.097Z,-0.87
2018-03-25T03:19:30.426Z,-0.86
2018-03-25T03:20:30.630Z,-0.91
2018-03-25T03:21:32.597Z,-0.92
2018-03-25T03:22:31.054Z,-0.92
2018-03-25T03:23:31.256Z,-0.83
2018-03-25T03:24:31.459Z,-0.84
2018-03-25T03:25:31.666Z,-0.87
2018-03-25T03:26:31.866Z,-0.87
2018-03-25T03:27:32.074Z,-0.81
2018-03-25T03:28:32.271Z,-0.83
2018-03-25T03:29:32.482Z,-0.81
2018-03-25T03:30:32.688Z,-0.77
2018-03-25T03:31:34.599Z,-0.78
2018-03-25T03:32:36.597Z,-0.55
2018-03-25T03:33:33.179Z,-0.68
2018-03-25T03:34:33.387Z,-0.68
2018-03-25T03:35:33.572Z,-0.65
2018-03-25T03:36:33.765Z,-0.69
2018-03-25T03:37:33.976Z,-0.77
2018-03-25T03:38:34.188Z,-0.69
2018-03-25T03:39:34.390Z,-0.73
2018-03-25T03:40:36.096Z,-0.72
2018-03-25T03:41:34.796Z,-0.73
2018-03-25T03:42:34.992Z,-0.69
2018-03-25T03:43:35.201Z,-0.60
2018-03-25T03:44:35.407Z,-0.70
2018-03-25T03:45:35.603Z,-0.69
2018-03-25T03:46:35.806Z,-0.75
2018-03-25T03:47:36.001Z,-0.84
2018-03-25T03:48:36.206Z,-0.86
2018-03-25T03:49:36.419Z,-0.94
2018-03-25T03:50:36.614Z,-0.84
2018-03-25T03:51:36.822Z,-0.78
2018-03-25T03:52:37.027Z,-0.80
2018-03-25T03:53:37.221Z,-0.81
2018-03-25T03:54:37.433Z,-0.83
2018-03-25T03:55:39.594Z,-0.86
2018-03-25T03:56:37.796Z,-0.84
2018-03-25T03:57:38.005Z,-0.92
2018-03-25T03:58:38.219Z,-0.94
2018-03-25T03:59:38.419Z,-1.07
2018-03-25T04:00:38.630Z,-0.99
2018-03-25T04:01:38.824Z,-0.97
2018-03-25T04:02:39.031Z,-1.07
2018-03-25T04:03:39.244Z,-1.13
2018-03-25T04:04:39.440Z,-1.15
2018-03-25T04:05:39.649Z,-1.20
2018-03-25T04:06:39.859Z,-1.17
2018-03-25T04:07:40.066Z,-1.23
2018-03-25T04:08:47.103Z,-1.17
2018-03-25T04:09:40.419Z,-1.20
2018-03-25T04:10:42.597Z,-1.09
2018-03-25T04:11:40.811Z,-1.17
2018-03-25T04:12:40.994Z,-1.05
2018-03-25T04:13:41.199Z,-1.02
2018-03-25T04:14:41.408Z,-0.97
2018-03-25T04:15:41.610Z,-0.99
2018-03-25T04:16:41.821Z,-0.97
2018-03-25T04:17:42.026Z,-1.02
2018-03-25T04:18:44.094Z,-0.99
2018-03-25T04:19:44.095Z,-0.95
2018-03-25T04:20:44.097Z,-0.99
2018-03-25T04:21:42.670Z,-0.97
2018-03-25T04:22:42.879Z,-0.92
2018-03-25T04:23:44.598Z,-0.91
2018-03-25T04:24:43.292Z,-0.84
2018-03-25T04:25:45.129Z,-0.87
2018-03-25T04:26:43.680Z,-0.89
2018-03-25T04:27:43.895Z,-0.91
2018-03-25T04:28:44.075Z,-0.91
2018-03-25T04:29:44.287Z,-0.87
2018-03-25T04:30:44.500Z,-0.94
2018-03-25T04:31:44.691Z,-0.92
2018-03-25T04:32:44.907Z,-1.02
2018-03-25T04:33:45.105Z,-1.06
2018-03-25T04:34:45.308Z,-1.09
2018-03-25T04:35:47.096Z,-1.12
2018-03-25T04:36:45.668Z,-1.12
2018-03-25T04:37:45.865Z,-1.12
2018-03-25T04:38:46.078Z,-1.09
2018-03-25T04:39:48.101Z,-1.03
2018-03-25T04:40:46.422Z,-1.05
2018-03-25T04:41:46.627Z,-1.05
2018-03-25T04:42:46.823Z,-0.99
2018-03-25T04:43:47.034Z,-1.00
2018-03-25T04:44:47.244Z,-1.02
2018-03-25T04:45:47.443Z,-0.97
2018-03-25T04:46:49.605Z,-0.94
2018-03-25T04:47:47.805Z,-0.92
2018-03-25T04:48:48.004Z,-1.07
2018-03-25T04:49:48.209Z,-1.02
2018-03-25T04:50:48.406Z,-1.12
2018-03-25T04:51:50.097Z,-1.23
2018-03-25T04:52:48.804Z,-1.20
2018-03-25T04:53:49.002Z,-1.23
2018-03-25T04:54:57.107Z,-1.27
2018-03-25T04:55:51.096Z,-1.24
2018-03-25T04:56:51.109Z,-1.25
2018-03-25T04:57:53.095Z,-1.24
2018-03-25T04:58:49.668Z,-1.18
2018-03-25T04:59:49.873Z,-1.03
2018-03-25T05:00:50.079Z,-1.17
2018-03-25T05:01:50.291Z,-1.20
2018-03-25T05:02:50.490Z,-1.18
2018-03-25T05:03:50.716Z,-1.15
2018-03-25T05:04:50.915Z,-1.15
2018-03-25T05:05:51.110Z,-1.18
2018-03-25T05:06:51.310Z,-1.07
2018-03-25T05:07:51.501Z,-1.07
2018-03-25T05:08:53.595Z,-1.06
2018-03-25T05:09:51.915Z,-1.09
2018-03-25T05:10:52.116Z,-1.07
2018-03-25T05:11:52.356Z,-1.07
2018-03-25T05:12:52.532Z,-1.12
2018-03-25T05:13:52.735Z,-1.25
2018-03-25T05:14:52.944Z,-1.23
2018-03-25T05:15:53.130Z,-1.20
2018-03-25T05:16:53.335Z,-1.23
2018-03-25T05:17:53.553Z,-1.27
2018-03-25T05:18:53.758Z,-1.24
2018-03-25T05:19:57.593Z,-1.15
2018-03-25T05:20:54.163Z,-1.12
2018-03-25T05:21:54.369Z,-1.06
2018-03-25T05:22:56.098Z,-1.15
2018-03-25T05:23:54.672Z,-1.18
2018-03-25T05:24:58.593Z,-1.09
2018-03-25T05:25:55.049Z,-1.23
2018-03-25T05:26:55.262Z,-1.13
2018-03-25T05:27:57.098Z,-1.05
2018-03-25T05:28:55.677Z,-1.07
2018-03-25T05:29:59.603Z,-0.99
2018-03-25T05:30:56.063Z,-0.94
2018-03-25T05:31:58.104Z,-0.94
2018-03-25T05:32:56.444Z,-0.92
2018-03-25T05:33:56.649Z,-0.89
2018-03-25T05:34:56.854Z,-0.91
2018-03-25T05:35:57.062Z,-0.99
2018-03-25T05:36:59.097Z,-0.89
2018-03-25T05:37:57.430Z,-0.92
2018-03-25T05:38:57.633Z,-0.99
2018-03-25T05:39:57.827Z,-0.89
2018-03-25T05:40:59.601Z,-0.77
2018-03-25T05:41:58.184Z,-0.75
2018-03-25T05:42:58.388Z,-0.80
2018-03-25T05:43:58.587Z,-0.78
2018-03-25T05:44:58.787Z,-0.75
2018-03-25T05:45:59.007Z,-0.59
2018-03-25T05:46:59.212Z,-0.57
2018-03-25T05:47:59.413Z,-0.62
2018-03-25T05:48:59.618Z,-0.55
2018-03-25T05:49:59.833Z,-0.59
2018-03-25T05:51:00.033Z,-0.50
2018-03-25T05:52:04.094Z,-0.57
2018-03-25T05:53:00.415Z,-0.37
2018-03-25T05:54:00.676Z,-0.33
2018-03-25T05:55:00.826Z,-0.26
2018-03-25T05:56:01.044Z,-0.34
2018-03-25T05:57:01.250Z,-0.18
2018-03-25T05:58:01.457Z,-0.09
2018-03-25T05:59:01.659Z,-0.11
2018-03-25T06:00:01.856Z,-0.01
2018-03-25T06:01:03.594Z,0.03
2018-03-25T06:02:02.169Z,0.03
2018-03-25T06:03:02.381Z,0.13
2018-03-25T06:04:02.584Z,0.12
2018-03-25T06:05:04.593Z,0.12
2018-03-25T06:06:02.929Z,0.18
2018-03-25T06:07:03.138Z,0.24
2018-03-25T06:08:03.355Z,0.28
2018-03-25T06:09:03.570Z,0.27
2018-03-25T06:10:03.753Z,0.28
2018-03-25T06:11:05.597Z,0.38
2018-03-25T06:12:04.175Z,0.48
2018-03-25T06:13:04.378Z,0.43
2018-03-25T06:14:06.101Z,0.57
2018-03-25T06:15:04.795Z,0.61
2018-03-25T06:16:05.008Z,0.70
2018-03-25T06:17:05.221Z,0.82
2018-03-25T06:18:08.104Z,0.98
2018-03-25T06:19:05.562Z,1.03
2018-03-25T06:20:05.766Z,1.08
2018-03-25T06:21:05.972Z,1.26
2018-03-25T06:22:06.191Z,1.47
2018-03-25T06:23:06.396Z,1.58
2018-03-25T06:24:07.245Z,1.57
2018-03-25T06:25:06.833Z,1.68
2018-03-25T06:26:07.042Z,1.68
2018-03-25T06:27:07.249Z,1.57
2018-03-25T06:28:07.462Z,1.64
2018-03-25T06:29:07.663Z,1.82
2018-03-25T06:30:07.881Z,1.85
2018-03-25T06:31:09.595Z,1.91
2018-03-25T06:32:10.094Z,2.08
2018-03-25T06:33:08.422Z,2.09
2018-03-25T06:34:08.635Z,2.28
2018-03-25T06:35:08.839Z,2.48
2018-03-25T06:36:09.056Z,2.64
2018-03-25T06:37:09.269Z,2.92
2018-03-25T06:38:12.110Z,3.12
2018-03-25T06:39:09.568Z,3.54
2018-03-25T06:40:09.787Z,3.65
2018-03-25T06:41:09.986Z,3.85
2018-03-25T06:42:10.182Z,4.29
2018-03-25T06:43:12.096Z,4.61
2018-03-25T06:44:10.553Z,4.76
2018-03-25T06:45:10.759Z,4.88
2018-03-25T06:46:11.069Z,5.01
2018-03-25T06:47:13.101Z,5.07
2018-03-25T06:48:11.306Z,5.25
2018-03-25T06:49:11.508Z,5.22
2018-03-25T06:50:11.717Z,5.41
2018-03-25T06:51:11.927Z,5.46
2018-03-25T06:52:14.116Z,5.52
2018-03-25T06:53:12.328Z,5.53
2018-03-25T06:54:12.538Z,5.45
2018-03-25T06:55:12.736Z,5.45
2018-03-25T06:56:14.607Z,5.56
2018-03-25T06:57:13.622Z,5.78
2018-03-25T06:58:13.212Z,5.74
2018-03-25T06:59:13.423Z,5.77
2018-03-25T07:00:13.647Z,5.98
2018-03-25T07:01:13.844Z,6.11
2018-03-25T07:02:14.050Z,6.14
2018-03-25T07:03:16.099Z,6.43
2018-03-25T07:04:16.106Z,6.89
2018-03-25T07:05:16.099Z,7.02
2018-03-25T07:06:14.708Z,7.23
2018-03-25T07:07:16.632Z,7.17
2018-03-25T07:08:15.059Z,7.40
2018-03-25T07:09:15.277Z,7.53
2018-03-25T07:10:15.487Z,7.45
2018-03-25T07:11:15.709Z,7.49
2018-03-25T07:12:15.985Z,8.03
2018-03-25T07:13:16.130Z,7.99
2018-03-25T07:14:16.351Z,7.99
2018-03-25T07:15:16.565Z,8.20
2018-03-25T07:16:16.758Z,8.02
2018-03-25T07:17:18.600Z,8.42
2018-03-25T07:18:17.186Z,8.45
2018-03-25T07:19:19.098Z,8.42
2018-03-25T07:20:17.586Z,8.60
2018-03-25T07:21:17.683Z,8.26
2018-03-25T07:22:17.899Z,8.51
2018-03-25T07:23:18.119Z,8.63
2018-03-25T07:24:18.330Z,8.96
2018-03-25T07:25:18.556Z,9.04
2018-03-25T07:26:20.633Z,9.23
2018-03-25T07:27:18.974Z,9.25
2018-03-25T07:28:20.632Z,9.34
2018-03-25T07:29:19.235Z,9.43
2018-03-25T07:30:19.467Z,9.70
2018-03-25T07:31:21.602Z,9.76
2018-03-25T07:32:22.602Z,9.64
2018-03-25T07:33:20.962Z,10.15
2018-03-25T07:34:20.695Z,10.58
2018-03-25T07:35:20.378Z,11.02
2018-03-25T07:36:20.592Z,11.16
2018-03-25T07:37:22.599Z,11.24
2018-03-25T07:38:20.934Z,11.28
2018-03-25T07:39:22.166Z,11.49
2018-03-25T07:40:23.098Z,11.70
2018-03-25T07:41:22.502Z,12.27
2018-03-25T07:42:21.611Z,12.46
2018-03-25T07:43:23.599Z,12.56
2018-03-25T07:44:21.963Z,12.71
2018-03-25T07:45:23.606Z,12.96
2018-03-25T07:46:22.230Z,13.09
2018-03-25T07:47:23.394Z,13.20
2018-03-25T07:48:24.098Z,13.33
2018-03-25T07:49:22.680Z,13.43
2018-03-25T07:50:22.924Z,13.47
2018-03-25T07:51:25.599Z,13.43
2018-03-25T07:52:23.186Z,13.21
2018-03-25T07:53:25.107Z,13.15
2018-03-25T07:54:23.569Z,12.96
2018-03-25T07:55:23.832Z,13.14
2018-03-25T07:56:27.623Z,13.09
2018-03-25T07:57:25.601Z,12.87
2018-03-25T07:58:28.108Z,12.33
2018-03-25T07:59:41.093Z,12.56
2018-03-25T08:00:30.804Z,12.24
2018-03-25T08:01:24.964Z,11.74
2018-03-25T08:02:28.058Z,11.97
2018-03-25T08:03:27.105Z,12.05
2018-03-25T08:04:29.084Z,12.21
2018-03-25T08:05:27.134Z,12.62
2018-03-25T08:06:29.107Z,12.82
2018-03-25T08:07:25.817Z,13.17
2018-03-25T08:08:27.627Z,13.15
2018-03-25T08:09:26.218Z,13.18
2018-03-25T08:10:27.428Z,13.07
2018-03-25T08:11:26.648Z,12.97
2018-03-25T08:12:27.613Z,13.37
2018-03-25T08:13:28.066Z,13.00
2018-03-25T08:14:28.067Z,13.00
2018-03-25T08:15:43.145Z,13.18
2018-03-25T08:16:27.598Z,13.44
2018-03-25T08:17:27.818Z,13.38
2018-03-25T08:18:29.603Z,13.20
2018-03-25T08:19:31.050Z,12.81
2018-03-25T08:20:28.444Z,12.63
2018-03-25T08:21:28.712Z,12.13
2018-03-25T08:22:28.884Z,12.30
2018-03-25T08:23:30.611Z,11.72
2018-03-25T08:24:30.611Z,11.99
2018-03-25T08:25:33.102Z,11.68
2018-03-25T08:26:31.603Z,12.16
2018-03-25T08:27:30.905Z,12.29
2018-03-25T08:28:31.649Z,12.31
2018-03-25T08:29:32.103Z,12.54
2018-03-25T08:30:32.164Z,12.34
2018-03-25T08:31:30.484Z,12.71
2018-03-25T08:32:31.632Z,12.63
2018-03-25T08:33:30.872Z,12.52
2018-03-25T08:34:31.103Z,13.33
2018-03-25T08:35:32.660Z,13.74
2018-03-25T08:36:33.123Z,13.76
2018-03-25T08:37:33.607Z,14.10
2018-03-25T08:38:33.603Z,14.72
2018-03-25T08:39:32.155Z,15.08
2018-03-25T08:40:36.106Z,15.39
2018-03-25T08:41:32.571Z,15.60
2018-03-25T08:42:36.615Z,15.70
2018-03-25T08:43:35.608Z,16.16
2018-03-25T08:44:40.606Z,16.53
2018-03-25T08:45:35.121Z,16.27
2018-03-25T08:46:33.543Z,16.68
2018-03-25T08:47:41.607Z,16.49
2018-03-25T08:48:35.606Z,16.71
2018-03-25T08:49:35.649Z,16.93
2018-03-25T08:50:36.109Z,16.81
2018-03-25T08:51:35.492Z,16.59
2018-03-25T08:52:34.602Z,16.63
2018-03-25T08:53:37.605Z,16.99
2018-03-25T08:54:38.610Z,16.77
2018-03-25T08:55:37.149Z,17.20
2018-03-25T08:56:35.330Z,17.44
2018-03-25T08:57:35.542Z,17.51
2018-03-25T08:58:41.749Z,17.14
2018-03-25T08:59:37.616Z,17.78
2018-03-25T09:00:36.201Z,17.92
2018-03-25T09:01:38.109Z,17.55
2018-03-25T09:02:36.577Z,17.76
2018-03-25T09:03:36.833Z,17.69
2018-03-25T09:04:39.611Z,17.25
2018-03-25T09:05:39.113Z,17.22
2018-03-25T09:06:37.338Z,17.28
2018-03-25T09:07:40.110Z,17.48
2018-03-25T09:08:39.608Z,17.73
2018-03-25T09:09:37.836Z,17.97
2018-03-25T09:10:38.055Z,17.99
2018-03-25T09:11:38.275Z,18.10
2018-03-25T09:12:40.109Z,18.27
2018-03-25T09:13:38.704Z,18.36
2018-03-25T09:14:38.935Z,18.55
2018-03-25T09:15:39.148Z,18.59
2018-03-25T09:16:39.377Z,18.77
2018-03-25T09:17:41.124Z,18.46
2018-03-25T09:18:39.845Z,18.74
2018-03-25T09:19:40.074Z,18.62
2018-03-25T09:20:40.303Z,18.97
2018-03-25T09:21:41.519Z,18.95
2018-03-25T09:22:40.748Z,19.10
2018-03-25T09:23:40.977Z,19.55
2018-03-25T09:24:41.198Z,19.29
2018-03-25T09:25:41.441Z,19.33
2018-03-25T09:26:43.613Z,19.58
2018-03-25T09:27:41.829Z,19.75
2018-03-25T09:28:43.611Z,20.09
2018-03-25T09:29:42.206Z,19.70
2018-03-25T09:30:44.111Z,19.68
2018-03-25T09:31:42.590Z,19.94
2018-03-25T09:32:42.818Z,20.05
2018-03-25T09:33:43.053Z,20.20
2018-03-25T09:34:43.291Z,20.35
2018-03-25T09:35:43.506Z,20.15
2018-03-25T09:36:43.734Z,20.54
2018-03-25T09:37:43.965Z,20.16
2018-03-25T09:38:44.185Z,20.30
2018-03-25T09:39:44.405Z,20.12
2018-03-25T09:40:44.619Z,20.69
2018-03-25T09:41:44.856Z,20.69
2018-03-25T09:42:45.073Z,20.15
2018-03-25T09:43:45.293Z,19.54
2018-03-25T09:44:45.522Z,19.02
2018-03-25T09:45:45.756Z,18.00
2018-03-25T09:46:45.976Z,18.92
2018-03-25T09:47:46.193Z,19.01
2018-03-25T09:48:46.413Z,18.92
2018-03-25T09:49:46.651Z,18.86
2018-03-25T09:50:46.879Z,18.36
2018-03-25T09:51:47.102Z,18.64
2018-03-25T09:52:47.335Z,19.23
2018-03-25T09:53:47.567Z,19.54
2018-03-25T09:54:47.790Z,18.97
2018-03-25T09:55:48.021Z,19.65
2018-03-25T09:56:48.255Z,20.09
2018-03-25T09:57:48.467Z,19.93
2018-03-25T09:58:48.700Z,20.09
2018-03-25T09:59:48.923Z,20.12
2018-03-25T10:00:49.141Z,20.08
2018-03-25T10:01:49.388Z,20.10
2018-03-25T10:02:49.609Z,18.92
2018-03-25T10:03:49.860Z,19.50
2018-03-25T10:04:50.071Z,20.13
2018-03-25T10:05:50.288Z,20.83
2018-03-25T10:06:50.524Z,21.34
2018-03-25T10:07:50.746Z,21.42
2018-03-25T10:08:50.984Z,21.48
2018-03-25T10:09:51.217Z,21.91
2018-03-25T10:10:51.433Z,21.61
2018-03-25T10:11:53.620Z,20.86
2018-03-25T10:12:53.614Z,21.53
2018-03-25T10:13:52.082Z,21.81
2018-03-25T10:14:52.321Z,22.37
2018-03-25T10:15:52.546Z,22.49
2018-03-25T10:16:52.773Z,22.02
2018-03-25T10:17:53.003Z,19.90
2018-03-25T10:18:53.237Z,20.61
2018-03-25T10:19:56.117Z,21.20
2018-03-25T10:20:53.598Z,20.89
2018-03-25T10:21:53.818Z,21.19
2018-03-25T10:22:54.049Z,19.87
2018-03-25T10:23:54.281Z,20.99
2018-03-25T10:24:54.559Z,21.74
2018-03-25T10:25:54.740Z,21.53
2018-03-25T10:26:54.969Z,21.88
2018-03-25T10:27:55.194Z,21.99
2018-03-25T10:28:55.421Z,21.59
2018-03-25T10:29:55.645Z,21.91
2018-03-25T10:30:55.875Z,22.35
2018-03-25T10:31:56.098Z,22.46
2018-03-25T10:32:56.324Z,22.19
2018-03-25T10:33:56.554Z,23.27
2018-03-25T10:34:56.776Z,21.66
2018-03-25T10:35:56.997Z,21.78
2018-03-25T10:36:57.235Z,22.27
2018-03-25T10:37:57.448Z,22.17
2018-03-25T10:38:57.679Z,22.23
2018-03-25T10:39:57.907Z,22.93
2018-03-25T10:40:58.129Z,23.11
2018-03-25T10:41:58.375Z,23.38
2018-03-25T10:42:58.608Z,23.64
2018-03-25T10:43:58.834Z,23.85
2018-03-25T10:44:59.065Z,23.26
2018-03-25T10:45:59.300Z,23.26
2018-03-25T10:46:59.521Z,21.78
2018-03-25T10:47:59.762Z,21.57
2018-03-25T10:48:59.984Z,22.16
2018-03-25T10:50:00.198Z,22.17
2018-03-25T10:51:00.447Z,21.83
2018-03-25T10:52:00.658Z,21.79
2018-03-25T10:53:00.908Z,22.59
2018-03-25T10:54:01.033Z,22.84
2018-03-25T10:55:01.249Z,22.59
2018-03-25T10:56:01.480Z,21.45
2018-03-25T10:57:01.722Z,20.69
2018-03-25T10:58:01.936Z,20.43
2018-03-25T10:59:02.169Z,20.98
2018-03-25T11:00:02.387Z,21.41
2018-03-25T11:01:02.616Z,22.09
2018-03-25T11:02:02.849Z,22.28
2018-03-25T11:03:03.069Z,21.98
2018-03-25T11:04:05.116Z,21.53
2018-03-25T11:05:05.120Z,22.39
2018-03-25T11:06:03.590Z,23.02
2018-03-25T11:07:03.824Z,22.41
2018-03-25T11:08:04.044Z,22.77
2018-03-25T11:09:04.273Z,22.83
2018-03-25T11:10:06.124Z,23.17
2018-03-25T11:11:04.722Z,22.68
2018-03-25T11:12:07.624Z,23.35
2018-03-25T11:13:05.102Z,23.94
2018-03-25T11:14:05.325Z,24.27
2018-03-25T11:15:05.553Z,24.79
2018-03-25T11:16:05.791Z,25.22
2018-03-25T11:17:06.017Z,25.27
2018-03-25T11:18:08.119Z,24.56
2018-03-25T11:19:06.477Z,23.83
2018-03-25T11:20:08.631Z,22.89
2018-03-25T11:21:06.852Z,21.91
2018-03-25T11:22:08.620Z,21.95
2018-03-25T11:23:07.254Z,20.99
2018-03-25T11:24:07.455Z,21.16
2018-03-25T11:25:07.670Z,21.19
2018-03-25T11:26:07.905Z,21.17
2018-03-25T11:27:08.128Z,21.06
2018-03-25T11:28:11.121Z,20.72
2018-03-25T11:29:08.598Z,20.76
2018-03-25T11:30:08.817Z,21.30
2018-03-25T11:31:09.039Z,21.56
2018-03-25T11:32:09.281Z,21.64
2018-03-25T11:33:09.496Z,20.93
2018-03-25T11:34:11.625Z,21.11
2018-03-25T11:35:09.979Z,20.76
2018-03-25T11:36:10.200Z,20.69
2018-03-25T11:37:10.453Z,20.76
2018-03-25T11:38:10.667Z,20.77
2018-03-25T11:39:10.894Z,21.26
2018-03-25T11:40:11.184Z,20.90
2018-03-25T11:41:11.354Z,20.86
2018-03-25T11:42:13.137Z,20.72
2018-03-25T11:43:11.740Z,20.96
2018-03-25T11:44:11.963Z,20.86
2018-03-25T11:45:12.184Z,20.89
2018-03-25T11:46:12.416Z,21.51
2018-03-25T11:47:12.644Z,21.44
2018-03-25T11:48:12.875Z,21.69
2018-03-25T11:49:13.095Z,20.86
2018-03-25T11:50:13.339Z,21.82
2018-03-25T11:51:13.554Z,22.12
2018-03-25T11:52:13.777Z,21.76
2018-03-25T11:53:14.021Z,21.35
2018-03-25T11:54:14.242Z,21.24
2018-03-25T11:55:15.223Z,21.05
2018-03-25T11:56:16.621Z,20.23
2018-03-25T11:57:16.625Z,20.84
2018-03-25T11:58:15.094Z,21.13
2018-03-25T11:59:15.318Z,21.59
2018-03-25T12:00:15.537Z,22.01
2018-03-25T12:01:15.772Z,21.57
2018-03-25T12:02:15.993Z,20.16
2018-03-25T12:03:16.211Z,20.56
2018-03-25T12:04:16.430Z,21.30
2018-03-25T12:05:16.664Z,21.79
2018-03-25T12:06:16.887Z,22.44
2018-03-25T12:07:17.117Z,22.12
2018-03-25T12:08:17.336Z,22.32
2018-03-25T12:09:17.562Z,22.25
2018-03-25T12:10:19.624Z,21.56
2018-03-25T12:11:17.979Z,22.19
2018-03-25T12:12:18.203Z,21.48
2018-03-25T12:13:18.422Z,22.13
2018-03-25T12:14:20.622Z,22.20
2018-03-25T12:15:18.853Z,22.44
2018-03-25T12:16:19.076Z,21.71
2018-03-25T12:17:19.296Z,21.74
2018-03-25T12:18:19.536Z,21.94
2018-03-25T12:19:19.754Z,21.81
2018-03-25T12:20:19.978Z,22.20
2018-03-25T12:21:20.221Z,22.92
2018-03-25T12:22:20.437Z,23.49
2018-03-25T12:23:22.626Z,23.94
2018-03-25T12:24:20.856Z,22.52
2018-03-25T12:25:21.077Z,22.23
2018-03-25T12:26:21.312Z,21.53
2018-03-25T12:27:21.546Z,20.98
2018-03-25T12:28:21.776Z,21.48
2018-03-25T12:29:22.010Z,22.54
2018-03-25T12:30:22.236Z,22.34
2018-03-25T12:31:22.462Z,21.42
2018-03-25T12:32:22.694Z,20.47
2018-03-25T12:33:24.625Z,20.08
2018-03-25T12:34:23.098Z,19.10
2018-03-25T12:35:23.329Z,19.14
2018-03-25T12:36:23.552Z,18.76
2018-03-25T12:37:23.778Z,19.17
2018-03-25T12:38:23.999Z,20.08
2018-03-25T12:39:24.233Z,20.79
2018-03-25T12:40:24.460Z,21.66
2018-03-25T12:41:24.680Z,22.02
2018-03-25T12:42:24.911Z,22.64
2018-03-25T12:43:25.144Z,22.64
2018-03-25T12:44:29.125Z,22.56
2018-03-25T12:45:27.136Z,22.77
2018-03-25T12:46:25.750Z,23.11
2018-03-25T12:47:25.964Z,23.08
2018-03-25T12:48:26.195Z,23.11
2018-03-25T12:49:26.423Z,23.40
2018-03-25T12:50:26.644Z,23.40
2018-03-25T12:51:26.876Z,23.22
2018-03-25T12:52:27.101Z,23.17
2018-03-25T12:53:31.125Z,22.93
2018-03-25T12:54:27.474Z,21.78
2018-03-25T12:55:27.696Z,22.20
2018-03-25T12:56:27.924Z,21.81
2018-03-25T12:57:28.159Z,21.79
2018-03-25T12:58:28.375Z,22.22
2018-03-25T12:59:28.616Z,22.67
2018-03-25T13:00:28.848Z,23.09
2018-03-25T13:01:29.073Z,22.93